17 Oct 2018 11:42 UTC 2018290+11:42 UTC

Overview Datums Bench Marks Data Query Site Visit Daily QC Messages Attributes

130: GBRA Station #2

28° 24' 26" N   96° 42' 43" W
GBRA2
Guadalupe Blanco River Authority (GBRA) GBRA

Station Information

GBRA Station #2
GBRA Station #2
more pictures
 
Station Name:GBRA Station #2
DNR ID:130
Location:28° 24' 26" N, 96° 42' 43" W

Water Level Forecasts

Latest Observations

Series Metric English Marine Observed at
Water Temperature 18.0 °C 64.4 °F 64.4 °F Oct 17 06:30 CDT
00h07m ago
Salinity 4.600 psu 4.600 psu 4.600 psu Oct 17 06:30 CDT
00h07m ago

Maps

GBRA Station #2
All Stations in Area
Entire Network
 

Recent Observations

Date/Time Water
Temp (°F)
Sal (psu)
Oct 17 06:00 CDT 64.2 4.400
Oct 17 05:00 CDT 64.4 4.400
Oct 17 04:00 CDT 64.6 4.400
Oct 17 03:00 CDT 64.8 4.200
Oct 17 02:00 CDT 64.8 4.100
Oct 17 01:00 CDT 65.1 4.100
Oct 17 00:00 CDT 65.7 4.100
Oct 16 23:00 CDT 65.8 3.900
Oct 16 22:00 CDT 66.2 4.000
Oct 16 21:00 CDT 66.6 3.900
Oct 16 20:00 CDT 66.7 3.800
Oct 16 19:00 CDT 66.9 4.000
Oct 16 18:00 CDT 67.3 3.700
Oct 16 17:00 CDT 67.5 3.700
Oct 16 16:00 CDT 67.6 3.600
Oct 16 15:00 CDT 67.5 3.800
Oct 16 14:00 CDT 67.5 3.800
Oct 16 13:00 CDT 66.9 3.700
Oct 16 12:00 CDT 66.7 3.900
Oct 16 11:00 CDT 66.4 3.600
Oct 16 10:00 CDT 66.2 3.600
Oct 16 09:00 CDT 66.2 3.300
Oct 16 08:00 CDT 66.7 3.300
Oct 16 07:00 CDT 67.1 3.200
Oct 16 06:00 CDT 67.8 3.300

Historical Data Availability